createdAt,value
2018-09-18T00:00:07.459Z,15.49
2018-09-18T00:01:07.198Z,15.54
2018-09-18T00:02:07.157Z,15.45
2018-09-18T00:03:06.882Z,15.45
2018-09-18T00:04:07.147Z,15.48
2018-09-18T00:05:07.403Z,15.54
2018-09-18T00:06:07.110Z,15.45
2018-09-18T00:07:07.100Z,15.45
2018-09-18T00:08:06.823Z,15.42
2018-09-18T00:09:07.364Z,15.48
2018-09-18T00:10:07.323Z,15.41
2018-09-18T00:11:06.785Z,15.41
2018-09-18T00:12:06.778Z,15.43
2018-09-18T00:13:06.761Z,15.38
2018-09-18T00:14:07.022Z,15.39
2018-09-18T00:15:06.994Z,15.35
2018-09-18T00:16:06.717Z,15.36
2018-09-18T00:17:06.977Z,15.3
2018-09-18T00:18:07.220Z,15.33
2018-09-18T00:19:07.222Z,15.36
2018-09-18T00:20:07.203Z,15.24
2018-09-18T00:21:06.927Z,15.21
2018-09-18T00:22:06.914Z,15.21
2018-09-18T00:23:07.202Z,15.23
2018-09-18T00:24:06.875Z,15.26
2018-09-18T00:25:06.865Z,15.21
2018-09-18T00:26:07.120Z,15.21
2018-09-18T00:27:06.575Z,15.19
2018-09-18T00:28:06.830Z,15.17
2018-09-18T00:29:07.084Z,15.17
2018-09-18T00:30:07.063Z,15.24
2018-09-18T00:31:06.527Z,15.21
2018-09-18T00:32:06.777Z,15.13
2018-09-18T00:33:07.035Z,15.12
2018-09-18T00:34:06.749Z,15.13
2018-09-18T00:35:06.736Z,15.09
2018-09-18T00:36:06.727Z,15.11
2018-09-18T00:37:06.712Z,15.11
2018-09-18T00:38:06.968Z,15.05
2018-09-18T00:39:06.953Z,15.23
2018-09-18T00:40:06.942Z,15.23
2018-09-18T00:41:06.664Z,15.11
2018-09-18T00:42:06.642Z,15.11
2018-09-18T00:43:06.906Z,15.21
2018-09-18T00:44:07.090Z,15.09
2018-09-18T00:45:06.613Z,15.08
2018-09-18T00:46:06.604Z,15.08
2018-09-18T00:47:06.843Z,15.17
2018-09-18T00:48:06.308Z,15.06
2018-09-18T00:49:06.570Z,15.13
2018-09-18T00:50:06.816Z,15.09
2018-09-18T00:51:06.531Z,15.15
2018-09-18T00:52:06.534Z,15.11
2018-09-18T00:53:06.774Z,15.15
2018-09-18T00:54:06.757Z,15.15
2018-09-18T00:55:06.480Z,15.06
2018-09-18T00:56:06.470Z,15.05
2018-09-18T00:57:06.455Z,15.06
2018-09-18T00:58:06.713Z,15.08
2018-09-18T00:59:06.430Z,15.15
2018-09-18T01:00:06.430Z,15.15
2018-09-18T01:01:06.398Z,15.13
2018-09-18T01:02:06.133Z,15.09
2018-09-18T01:03:06.642Z,15.08
2018-09-18T01:04:06.634Z,15.05
2018-09-18T01:05:06.345Z,15.05
2018-09-18T01:06:06.596Z,15.17
2018-09-18T01:07:06.384Z,15.08
2018-09-18T01:08:06.572Z,15.11
2018-09-18T01:09:06.563Z,15.06
2018-09-18T01:10:06.297Z,15.11
2018-09-18T01:11:06.282Z,15.02
2018-09-18T01:12:06.537Z,14.98
2018-09-18T01:13:06.516Z,14.99
2018-09-18T01:14:06.508Z,15.01
2018-09-18T01:15:05.960Z,14.95
2018-09-18T01:16:06.481Z,14.93
2018-09-18T01:17:06.198Z,14.95
2018-09-18T01:18:06.443Z,14.93
2018-09-18T01:19:06.170Z,14.87
2018-09-18T01:20:06.167Z,14.87
2018-09-18T01:21:06.410Z,14.94
2018-09-18T01:22:05.864Z,14.9
2018-09-18T01:23:06.115Z,14.84
2018-09-18T01:24:06.105Z,14.83
2018-09-18T01:25:06.088Z,14.83
2018-09-18T01:26:06.351Z,14.8
2018-09-18T01:27:05.800Z,14.74
2018-09-18T01:28:06.319Z,14.8
2018-09-18T01:29:06.039Z,14.8
2018-09-18T01:30:05.767Z,14.78
2018-09-18T01:31:06.313Z,14.78
2018-09-18T01:32:06.002Z,14.78
2018-09-18T01:33:06.246Z,14.8
2018-09-18T01:34:06.240Z,14.78
2018-09-18T01:35:06.231Z,14.74
2018-09-18T01:36:05.951Z,14.78
2018-09-18T01:37:05.673Z,14.8
2018-09-18T01:38:05.922Z,14.8
2018-09-18T01:39:06.179Z,14.75
2018-09-18T01:40:05.903Z,14.8
2018-09-18T01:41:05.890Z,14.71
2018-09-18T01:42:06.132Z,14.75
2018-09-18T01:43:05.858Z,14.68
2018-09-18T01:44:05.842Z,14.69
2018-09-18T01:45:05.835Z,14.71
2018-09-18T01:46:06.083Z,14.68
2018-09-18T01:47:05.806Z,14.65
2018-09-18T01:48:05.787Z,14.64
2018-09-18T01:49:06.052Z,14.57
2018-09-18T01:50:06.025Z,14.65
2018-09-18T01:51:05.752Z,14.61
2018-09-18T01:52:06.000Z,14.57
2018-09-18T01:53:05.727Z,14.52
2018-09-18T01:54:05.711Z,14.62
2018-09-18T01:55:05.957Z,14.57
2018-09-18T01:56:05.688Z,14.49
2018-09-18T01:57:05.672Z,14.61
2018-09-18T01:58:05.932Z,14.47
2018-09-18T01:59:05.906Z,14.47
2018-09-18T02:00:05.887Z,14.49
2018-09-18T02:01:05.353Z,14.52
2018-09-18T02:02:05.605Z,14.53
2018-09-18T02:03:05.854Z,14.54
2018-09-18T02:04:05.577Z,14.47
2018-09-18T02:05:05.826Z,14.54
2018-09-18T02:06:05.288Z,14.49
2018-09-18T02:07:05.798Z,14.5
2018-09-18T02:08:05.265Z,14.53
2018-09-18T02:09:05.773Z,14.47
2018-09-18T02:10:05.235Z,14.53
2018-09-18T02:11:05.749Z,14.49
2018-09-18T02:12:05.730Z,14.5
2018-09-18T02:13:05.462Z,14.52
2018-09-18T02:14:05.707Z,14.54
2018-09-18T02:15:05.430Z,14.49
2018-09-18T02:16:05.682Z,14.47
2018-09-18T02:17:05.404Z,14.61
2018-09-18T02:18:05.398Z,14.47
2018-09-18T02:19:05.377Z,14.49
2018-09-18T02:20:05.362Z,14.49
2018-09-18T02:21:05.090Z,14.53
2018-09-18T02:22:05.337Z,14.53
2018-09-18T02:23:05.588Z,14.53
2018-09-18T02:24:05.574Z,14.53
2018-09-18T02:25:05.568Z,14.49
2018-09-18T02:26:05.280Z,14.47
2018-09-18T02:27:05.278Z,14.49
2018-09-18T02:28:04.995Z,14.5
2018-09-18T02:29:05.512Z,14.47
2018-09-18T02:30:05.501Z,14.57
2018-09-18T02:31:05.217Z,14.53
2018-09-18T02:32:05.210Z,14.49
2018-09-18T02:33:05.197Z,14.49
2018-09-18T02:34:05.446Z,14.52
2018-09-18T02:35:04.909Z,14.54
2018-09-18T02:36:05.414Z,14.52
2018-09-18T02:37:05.138Z,14.52
2018-09-18T02:38:05.399Z,14.53
2018-09-18T02:39:05.113Z,14.56
2018-09-18T02:40:05.372Z,14.56
2018-09-18T02:41:05.348Z,14.56
2018-09-18T02:42:05.341Z,14.61
2018-09-18T02:43:05.317Z,14.57
2018-09-18T02:44:05.513Z,14.52
2018-09-18T02:45:05.035Z,14.6
2018-09-18T02:46:05.017Z,14.5
2018-09-18T02:47:05.266Z,14.67
2018-09-18T02:48:04.998Z,14.64
2018-09-18T02:49:04.712Z,14.68
2018-09-18T02:50:05.234Z,14.67
2018-09-18T02:51:05.221Z,14.69
2018-09-18T02:52:04.934Z,14.67
2018-09-18T02:53:04.920Z,14.67
2018-09-18T02:54:05.190Z,14.72
2018-09-18T02:55:05.166Z,14.71
2018-09-18T02:56:04.629Z,14.71
2018-09-18T02:57:04.875Z,14.72
2018-09-18T02:58:05.132Z,14.74
2018-09-18T02:59:04.846Z,14.75
2018-09-18T03:00:05.115Z,14.81
2018-09-18T03:01:04.811Z,14.78
2018-09-18T03:02:05.070Z,14.75
2018-09-18T03:03:04.793Z,14.72
2018-09-18T03:04:04.779Z,14.75
2018-09-18T03:05:05.037Z,14.78
2018-09-18T03:06:05.020Z,14.74
2018-09-18T03:07:05.004Z,14.84
2018-09-18T03:08:04.986Z,14.8
2018-09-18T03:09:04.717Z,14.83
2018-09-18T03:10:04.705Z,14.87
2018-09-18T03:11:04.687Z,14.81
2018-09-18T03:12:04.697Z,14.78
2018-09-18T03:13:04.929Z,14.87
2018-09-18T03:14:04.910Z,14.83
2018-09-18T03:15:04.633Z,14.91
2018-09-18T03:16:04.621Z,14.84
2018-09-18T03:17:04.866Z,14.88
2018-09-18T03:18:04.856Z,14.83
2018-09-18T03:19:04.577Z,14.83
2018-09-18T03:20:04.827Z,14.84
2018-09-18T03:21:05.264Z,14.88
2018-09-18T03:22:04.811Z,14.83
2018-09-18T03:23:04.787Z,14.87
2018-09-18T03:24:04.776Z,14.86
2018-09-18T03:25:04.502Z,14.8
2018-09-18T03:26:04.484Z,14.83
2018-09-18T03:27:04.212Z,14.84
2018-09-18T03:28:04.464Z,14.83
2018-09-18T03:29:04.711Z,14.84
2018-09-18T03:30:04.430Z,14.81
2018-09-18T03:31:04.422Z,14.83
2018-09-18T03:32:04.409Z,14.84
2018-09-18T03:33:04.396Z,14.81
2018-09-18T03:34:04.675Z,14.81
2018-09-18T03:35:04.362Z,14.78
2018-09-18T03:36:04.617Z,14.81
2018-09-18T03:37:04.603Z,14.8
2018-09-18T03:38:04.586Z,14.74
2018-09-18T03:39:04.587Z,14.74
2018-09-18T03:40:04.567Z,14.74
2018-09-18T03:41:04.546Z,14.75
2018-09-18T03:42:04.010Z,14.74
2018-09-18T03:43:03.998Z,14.69
2018-09-18T03:44:04.510Z,14.74
2018-09-18T03:45:04.247Z,14.64
2018-09-18T03:46:04.493Z,14.71
2018-09-18T03:47:04.482Z,14.67
2018-09-18T03:48:04.199Z,14.74
2018-09-18T03:49:04.463Z,14.75
2018-09-18T03:50:04.437Z,14.68
2018-09-18T03:51:03.895Z,14.64
2018-09-18T03:52:04.409Z,14.67
2018-09-18T03:53:04.134Z,14.72
2018-09-18T03:54:04.116Z,14.72
2018-09-18T03:55:04.132Z,14.67
2018-09-18T03:56:03.827Z,14.75
2018-09-18T03:57:04.075Z,14.72
2018-09-18T03:58:04.334Z,14.75
2018-09-18T03:59:03.795Z,14.75
2018-09-18T04:00:04.034Z,14.8
2018-09-18T04:01:04.027Z,14.72
2018-09-18T04:02:04.005Z,14.69
2018-09-18T04:03:04.099Z,14.72
2018-09-18T04:04:03.990Z,14.69
2018-09-18T04:05:04.235Z,14.69
2018-09-18T04:06:04.220Z,14.72
2018-09-18T04:07:03.939Z,14.69
2018-09-18T04:08:03.929Z,14.8
2018-09-18T04:09:04.176Z,14.72
2018-09-18T04:10:03.909Z,14.78
2018-09-18T04:11:03.893Z,14.78
2018-09-18T04:12:04.143Z,14.74
2018-09-18T04:13:03.863Z,14.69
2018-09-18T04:14:04.118Z,14.78
2018-09-18T04:15:04.150Z,14.72
2018-09-18T04:16:04.088Z,14.8
2018-09-18T04:17:04.080Z,14.78
2018-09-18T04:18:04.055Z,14.78
2018-09-18T04:19:03.780Z,14.74
2018-09-18T04:20:04.028Z,14.68
2018-09-18T04:21:03.499Z,14.81
2018-09-18T04:22:04.007Z,14.78
2018-09-18T04:23:03.726Z,14.75
2018-09-18T04:24:03.446Z,14.75
2018-09-18T04:25:03.699Z,14.8
2018-09-18T04:26:03.954Z,14.78
2018-09-18T04:27:03.950Z,14.8
2018-09-18T04:28:03.928Z,14.78
2018-09-18T04:29:03.919Z,14.83
2018-09-18T04:30:03.634Z,14.83
2018-09-18T04:31:03.627Z,14.78
2018-09-18T04:32:03.613Z,14.84
2018-09-18T04:33:03.598Z,14.81
2018-09-18T04:34:03.856Z,14.84
2018-09-18T04:35:03.832Z,14.83
2018-09-18T04:36:03.831Z,14.91
2018-09-18T04:37:03.552Z,14.84
2018-09-18T04:38:03.534Z,14.88
2018-09-18T04:39:03.526Z,14.83
2018-09-18T04:40:03.504Z,14.88
2018-09-18T04:41:03.508Z,14.9
2018-09-18T04:42:03.479Z,14.86
2018-09-18T04:43:03.729Z,14.91
2018-09-18T04:44:03.874Z,14.9
2018-09-18T04:45:03.173Z,14.9
2018-09-18T04:46:03.283Z,14.87
2018-09-18T04:47:03.413Z,14.93
2018-09-18T04:48:03.403Z,14.98
2018-09-18T04:49:03.390Z,15.01
2018-09-18T04:50:03.371Z,15.03
2018-09-18T04:51:03.394Z,15.15
2018-09-18T04:52:03.611Z,15.08
2018-09-18T04:53:03.600Z,15.12
2018-09-18T04:54:03.583Z,15.08
2018-09-18T04:55:03.530Z,15.09
2018-09-18T04:56:03.555Z,15.23
2018-09-18T04:57:03.289Z,15.2
2018-09-18T04:58:03.532Z,15.2
2018-09-18T04:59:03.517Z,15.2
2018-09-18T05:00:02.974Z,15.27
2018-09-18T05:01:03.228Z,15.23
2018-09-18T05:02:03.647Z,15.27
2018-09-18T05:03:03.199Z,15.28
2018-09-18T05:04:02.927Z,15.26
2018-09-18T05:05:03.225Z,15.27
2018-09-18T05:06:03.165Z,15.28
2018-09-18T05:07:03.410Z,15.24
2018-09-18T05:08:03.403Z,15.31
2018-09-18T05:09:03.132Z,15.27
2018-09-18T05:10:03.107Z,15.24
2018-09-18T05:11:03.099Z,15.21
2018-09-18T05:12:03.347Z,15.23
2018-09-18T05:13:03.075Z,15.19
2018-09-18T05:14:03.551Z,15.23
2018-09-18T05:15:03.307Z,15.3
2018-09-18T05:16:03.307Z,15.3
2018-09-18T05:17:03.038Z,15.3
2018-09-18T05:18:03.318Z,15.3
2018-09-18T05:19:03.001Z,15.24
2018-09-18T05:20:03.250Z,15.31
2018-09-18T05:21:02.964Z,15.31
2018-09-18T05:22:03.215Z,15.28
2018-09-18T05:23:02.675Z,15.31
2018-09-18T05:24:03.241Z,15.38
2018-09-18T05:25:02.912Z,15.39
2018-09-18T05:26:02.640Z,15.27
2018-09-18T05:27:03.153Z,15.36
2018-09-18T05:28:03.143Z,15.38
2018-09-18T05:29:03.130Z,15.33
2018-09-18T05:30:02.853Z,15.39
2018-09-18T05:31:03.108Z,15.41
2018-09-18T05:32:02.828Z,15.35
2018-09-18T05:33:02.814Z,15.35
2018-09-18T05:34:03.058Z,15.42
2018-09-18T05:35:02.784Z,15.33
2018-09-18T05:36:02.768Z,15.36
2018-09-18T05:37:03.021Z,15.36
2018-09-18T05:38:02.742Z,15.41
2018-09-18T05:39:02.993Z,15.48
2018-09-18T05:40:02.721Z,15.42
2018-09-18T05:41:02.700Z,15.49
2018-09-18T05:42:02.926Z,15.45
2018-09-18T05:43:02.947Z,15.52
2018-09-18T05:44:02.670Z,15.46
2018-09-18T05:45:02.917Z,15.54
2018-09-18T05:46:02.641Z,15.56
2018-09-18T05:47:02.630Z,15.6
2018-09-18T05:48:02.738Z,15.54
2018-09-18T05:49:02.603Z,15.59
2018-09-18T05:50:02.855Z,15.6
2018-09-18T05:51:02.580Z,15.61
2018-09-18T05:52:02.559Z,15.64
2018-09-18T05:53:02.816Z,15.67
2018-09-18T05:54:02.533Z,15.68
2018-09-18T05:55:02.790Z,15.74
2018-09-18T05:56:02.787Z,15.72
2018-09-18T05:57:02.498Z,15.74
2018-09-18T05:58:02.747Z,15.75
2018-09-18T05:59:02.743Z,15.84
2018-09-18T06:00:02.723Z,15.82
2018-09-18T06:01:02.181Z,15.81
2018-09-18T06:02:02.450Z,15.94
2018-09-18T06:03:02.428Z,15.96
2018-09-18T06:04:02.682Z,15.96
2018-09-18T06:05:02.397Z,15.97
2018-09-18T06:06:02.385Z,16.01
2018-09-18T06:07:02.375Z,16.06
2018-09-18T06:08:02.623Z,16.16
2018-09-18T06:09:02.346Z,16.16
2018-09-18T06:10:02.600Z,16.12
2018-09-18T06:11:02.584Z,16.2
2018-09-18T06:12:02.572Z,16.18
2018-09-18T06:13:02.561Z,16.25
2018-09-18T06:14:02.549Z,16.3
2018-09-18T06:15:02.539Z,16.26
2018-09-18T06:16:02.262Z,16.26
2018-09-18T06:17:02.249Z,16.34
2018-09-18T06:18:02.231Z,16.4
2018-09-18T06:19:02.696Z,16.3
2018-09-18T06:20:02.474Z,16.48
2018-09-18T06:21:01.936Z,16.45
2018-09-18T06:22:02.443Z,16.42
2018-09-18T06:23:02.171Z,16.49
2018-09-18T06:24:02.157Z,16.55
2018-09-18T06:25:02.146Z,16.53
2018-09-18T06:26:02.168Z,16.58
2018-09-18T06:27:02.116Z,16.59
2018-09-18T06:28:02.375Z,16.65
2018-09-18T06:29:02.363Z,16.67
2018-09-18T06:30:02.351Z,16.71
2018-09-18T06:31:02.336Z,16.7
2018-09-18T06:32:02.057Z,16.8
2018-09-18T06:33:01.779Z,16.85
2018-09-18T06:34:02.300Z,16.8
2018-09-18T06:35:02.021Z,16.92
2018-09-18T06:36:02.322Z,16.89
2018-09-18T06:37:02.511Z,16.92
2018-09-18T06:38:01.982Z,17
2018-09-18T06:39:02.241Z,17.13
2018-09-18T06:40:02.222Z,17.14
2018-09-18T06:41:01.954Z,17.18
2018-09-18T06:42:02.201Z,17.3
2018-09-18T06:43:02.197Z,17.33
2018-09-18T06:44:02.580Z,17.46
2018-09-18T06:45:01.901Z,17.46
2018-09-18T06:46:01.886Z,17.48
2018-09-18T06:47:01.876Z,17.62
2018-09-18T06:48:01.621Z,17.7
2018-09-18T06:49:01.854Z,17.73
2018-09-18T06:50:02.103Z,17.82
2018-09-18T06:51:02.090Z,17.88
2018-09-18T06:52:01.813Z,18.06
2018-09-18T06:53:01.807Z,18.19
2018-09-18T06:54:02.055Z,18.31
2018-09-18T06:55:01.780Z,18.31
2018-09-18T06:56:01.780Z,18.4
2018-09-18T06:57:02.020Z,18.54
2018-09-18T06:58:01.763Z,18.58
2018-09-18T06:59:01.734Z,18.7
2018-09-18T07:00:01.458Z,18.76
2018-09-18T07:01:01.982Z,18.87
2018-09-18T07:02:01.698Z,19.01
2018-09-18T07:03:01.954Z,18.99
2018-09-18T07:04:01.677Z,19.14
2018-09-18T07:05:01.934Z,19.33
2018-09-18T07:06:01.650Z,19.4
2018-09-18T07:07:01.907Z,19.53
2018-09-18T07:08:01.631Z,19.51
2018-09-18T07:09:01.362Z,19.7
2018-09-18T07:10:01.613Z,19.76
2018-09-18T07:11:01.596Z,19.9
2018-09-18T07:12:01.583Z,19.97
2018-09-18T07:13:01.843Z,19.98
2018-09-18T07:14:01.568Z,20.12
2018-09-18T07:15:01.558Z,20.2
2018-09-18T07:16:01.539Z,20.28
2018-09-18T07:17:01.544Z,20.39
2018-09-18T07:18:01.270Z,20.49
2018-09-18T07:19:01.784Z,20.61
2018-09-18T07:20:01.496Z,20.74
2018-09-18T07:21:01.228Z,20.66
2018-09-18T07:22:01.210Z,20.91
2018-09-18T07:23:01.465Z,21.02
2018-09-18T07:24:01.729Z,21.14
2018-09-18T07:25:02.060Z,21.26
2018-09-18T07:26:01.701Z,21.23
2018-09-18T07:27:01.437Z,21.34
2018-09-18T07:28:01.689Z,21.32
2018-09-18T07:29:01.414Z,21.44
2018-09-18T07:30:01.391Z,21.51
2018-09-18T07:31:01.647Z,21.51
2018-09-18T07:32:01.635Z,21.59
2018-09-18T07:33:01.095Z,21.61
2018-09-18T07:34:01.457Z,21.66
2018-09-18T07:35:01.614Z,21.64
2018-09-18T07:36:01.656Z,21.81
2018-09-18T07:37:01.596Z,22.07
2018-09-18T07:38:01.585Z,21.94
2018-09-18T07:39:01.308Z,22.02
2018-09-18T07:40:01.032Z,22.06
2018-09-18T07:41:01.396Z,22.06
2018-09-18T07:42:01.011Z,22.14
2018-09-18T07:43:01.262Z,22.16
2018-09-18T07:44:01.253Z,22.32
2018-09-18T07:45:01.246Z,22.43
2018-09-18T07:46:01.233Z,22.43
2018-09-18T07:47:01.225Z,22.62
2018-09-18T07:48:01.478Z,22.67
2018-09-18T07:49:01.205Z,22.72
2018-09-18T07:50:01.459Z,22.74
2018-09-18T07:51:01.454Z,22.82
2018-09-18T07:52:01.177Z,22.86
2018-09-18T07:53:01.168Z,22.97
2018-09-18T07:54:01.160Z,22.97
2018-09-18T07:55:01.147Z,23.07
2018-09-18T07:56:00.879Z,23.14
2018-09-18T07:57:01.391Z,23.14
2018-09-18T07:58:01.383Z,23.12
2018-09-18T07:59:01.372Z,23.11
2018-09-18T08:00:01.104Z,23.19
2018-09-18T08:01:00.827Z,23.26
2018-09-18T08:02:01.353Z,23.34
2018-09-18T08:03:01.443Z,23.4
2018-09-18T08:04:01.330Z,23.34
2018-09-18T08:05:01.069Z,23.39
2018-09-18T08:06:01.047Z,23.49
2018-09-18T08:07:01.247Z,23.47
2018-09-18T08:08:01.298Z,23.57
2018-09-18T08:09:01.021Z,23.7
2018-09-18T08:10:00.754Z,23.75
2018-09-18T08:11:01.220Z,23.71
2018-09-18T08:12:01.259Z,23.83
2018-09-18T08:13:00.990Z,23.89
2018-09-18T08:14:00.713Z,23.98
2018-09-18T08:15:01.236Z,24.05
2018-09-18T08:16:01.225Z,24.07
2018-09-18T08:17:01.214Z,24.05
2018-09-18T08:18:00.947Z,24.17
2018-09-18T08:19:02.082Z,24.23
2018-09-18T08:20:00.926Z,24.44
2018-09-18T08:21:00.917Z,24.73
2018-09-18T08:22:01.284Z,24.97
2018-09-18T08:23:00.899Z,24.95
2018-09-18T08:24:00.903Z,24.95
2018-09-18T08:25:00.956Z,24.95
2018-09-18T08:26:00.890Z,24.98
2018-09-18T08:27:01.145Z,25
2018-09-18T08:28:00.860Z,24.88
2018-09-18T08:29:00.855Z,25.01
2018-09-18T08:30:01.114Z,25.07
2018-09-18T08:31:01.109Z,25.06
2018-09-18T08:32:00.569Z,25.01
2018-09-18T08:33:00.614Z,25.09
2018-09-18T08:34:01.091Z,25.12
2018-09-18T08:35:01.082Z,25.17
2018-09-18T08:36:00.797Z,25.19
2018-09-18T08:37:00.792Z,25.28
2018-09-18T08:38:00.790Z,25.27
2018-09-18T08:39:00.781Z,25.3
2018-09-18T08:40:01.528Z,25.35
2018-09-18T08:41:01.063Z,25.47
2018-09-18T08:42:00.488Z,25.42
2018-09-18T08:43:01.041Z,25.49
2018-09-18T08:44:00.791Z,25.59
2018-09-18T08:45:00.770Z,25.67
2018-09-18T08:46:00.992Z,25.69
2018-09-18T08:47:00.712Z,25.74
2018-09-18T08:48:00.708Z,25.83
2018-09-18T08:49:01.049Z,25.8
2018-09-18T08:50:00.436Z,25.91
2018-09-18T08:51:00.430Z,25.94
2018-09-18T08:52:01.336Z,25.97
2018-09-18T08:53:00.816Z,26.08
2018-09-18T08:54:01.017Z,26.02
2018-09-18T08:55:00.716Z,26.06
2018-09-18T08:56:01.003Z,26.2
2018-09-18T08:57:01.025Z,26.29
2018-09-18T08:58:00.671Z,26.31
2018-09-18T08:59:00.632Z,26.35
2018-09-18T09:00:00.619Z,26.36
2018-09-18T09:01:00.869Z,26.37
2018-09-18T09:02:00.933Z,26.5
2018-09-18T09:03:00.897Z,26.5
2018-09-18T09:04:00.656Z,26.59
2018-09-18T09:05:01.054Z,26.52
2018-09-18T09:06:01.293Z,26.68
2018-09-18T09:07:00.299Z,26.8
2018-09-18T09:08:01.256Z,26.83
2018-09-18T09:09:00.866Z,26.83
2018-09-18T09:10:00.577Z,26.99
2018-09-18T09:11:01.139Z,27.02
2018-09-18T09:12:00.535Z,27.04
2018-09-18T09:13:00.819Z,27.06
2018-09-18T09:14:00.526Z,27.19
2018-09-18T09:15:00.663Z,27.32
2018-09-18T09:16:00.815Z,27.28
2018-09-18T09:17:00.495Z,27.31
2018-09-18T09:18:01.055Z,27.47
2018-09-18T09:19:00.486Z,27.53
2018-09-18T09:20:00.515Z,27.61
2018-09-18T09:21:01.143Z,27.61
2018-09-18T09:22:01.222Z,27.69
2018-09-18T09:23:00.827Z,27.73
2018-09-18T09:24:00.742Z,27.69
2018-09-18T09:25:00.735Z,27.79
2018-09-18T09:26:00.467Z,27.94
2018-09-18T09:27:00.609Z,27.95
2018-09-18T09:28:00.196Z,28.04
2018-09-18T09:29:00.797Z,27.96
2018-09-18T09:30:00.597Z,27.96
2018-09-18T09:31:00.450Z,27.99
2018-09-18T09:32:00.817Z,28.11
2018-09-18T09:33:00.663Z,28.11
2018-09-18T09:34:00.391Z,28.21
2018-09-18T09:35:00.410Z,28.26
2018-09-18T09:36:00.655Z,28.35
2018-09-18T09:37:00.584Z,28.33
2018-09-18T09:38:00.416Z,28.35
2018-09-18T09:39:00.598Z,28.38
2018-09-18T09:40:00.622Z,28.35
2018-09-18T09:41:00.332Z,28.35
2018-09-18T09:42:00.330Z,28.38
2018-09-18T09:43:00.588Z,28.47
2018-09-18T09:44:00.676Z,28.47
2018-09-18T09:45:00.766Z,28.53
2018-09-18T09:46:00.302Z,28.56
2018-09-18T09:47:00.558Z,28.59
2018-09-18T09:48:00.298Z,28.48
2018-09-18T09:49:00.283Z,28.53
2018-09-18T09:50:00.557Z,28.53
2018-09-18T09:51:00.339Z,28.63
2018-09-18T09:52:00.266Z,28.53
2018-09-18T09:53:00.258Z,28.6
2018-09-18T09:54:00.534Z,28.53
2018-09-18T09:55:00.256Z,28.56
2018-09-18T09:55:59.984Z,28.7
2018-09-18T09:57:00.911Z,28.72
2018-09-18T09:58:00.489Z,28.68
2018-09-18T09:58:59.965Z,28.7
2018-09-18T10:00:00.218Z,28.87
2018-09-18T10:01:00.209Z,28.87
2018-09-18T10:02:00.468Z,28.9
2018-09-18T10:03:00.808Z,28.87
2018-09-18T10:04:00.465Z,28.9
2018-09-18T10:05:00.455Z,28.91
2018-09-18T10:06:00.447Z,28.88
2018-09-18T10:07:00.435Z,28.88
2018-09-18T10:08:00.436Z,28.93
2018-09-18T10:09:00.472Z,28.97
2018-09-18T10:09:59.894Z,28.95
2018-09-18T10:11:01.266Z,29.03
2018-09-18T10:12:00.144Z,28.96
2018-09-18T10:13:00.140Z,29.03
2018-09-18T10:14:00.145Z,29.03
2018-09-18T10:15:00.399Z,29.15
2018-09-18T10:16:00.119Z,29.15
2018-09-18T10:17:00.124Z,29.1
2018-09-18T10:18:00.385Z,29.11
2018-09-18T10:19:00.102Z,29.1
2018-09-18T10:20:00.366Z,29.16
2018-09-18T10:21:00.092Z,29.2
2018-09-18T10:22:00.352Z,29.2
2018-09-18T10:23:00.350Z,29.29
2018-09-18T10:24:00.398Z,29.22
2018-09-18T10:24:59.893Z,29.26
2018-09-18T10:26:00.539Z,29.28
2018-09-18T10:27:00.787Z,29.38
2018-09-18T10:28:00.366Z,29.37
2018-09-18T10:29:00.112Z,29.38
2018-09-18T10:30:00.357Z,29.52
2018-09-18T10:31:00.311Z,29.4
2018-09-18T10:32:00.085Z,29.59
2018-09-18T10:33:00.155Z,29.59
2018-09-18T10:34:00.288Z,29.7
2018-09-18T10:35:00.019Z,29.75
2018-09-18T10:35:59.774Z,29.87
2018-09-18T10:37:00.143Z,29.92
2018-09-18T10:38:00.047Z,29.92
2018-09-18T10:39:00.010Z,29.99
2018-09-18T10:40:00.294Z,30.23
2018-09-18T10:41:00.833Z,30.14
2018-09-18T10:42:00.730Z,30.24
2018-09-18T10:43:00.086Z,30.21
2018-09-18T10:43:59.996Z,30.21
2018-09-18T10:45:00.374Z,30.21
2018-09-18T10:46:00.256Z,30.18
2018-09-18T10:47:00.257Z,30.16
2018-09-18T10:48:00.217Z,30.27
2018-09-18T10:48:59.690Z,30.19
2018-09-18T10:50:00.205Z,30.31
2018-09-18T10:50:59.934Z,30.36
2018-09-18T10:52:00.218Z,30.4
2018-09-18T10:52:59.927Z,30.3
2018-09-18T10:53:59.936Z,30.23
2018-09-18T10:55:00.206Z,30.23
2018-09-18T10:55:59.919Z,30.21
2018-09-18T10:56:59.645Z,30.14
2018-09-18T10:58:00.173Z,30.14
2018-09-18T10:58:59.898Z,30.15
2018-09-18T11:00:00.203Z,30.27
2018-09-18T11:01:00.172Z,30.26
2018-09-18T11:02:00.144Z,30.34
2018-09-18T11:03:00.178Z,30.34
2018-09-18T11:03:59.876Z,30.18
2018-09-18T11:05:00.189Z,30.23
2018-09-18T11:05:59.895Z,30.14
2018-09-18T11:07:00.616Z,30.21
2018-09-18T11:08:00.055Z,30.16
2018-09-18T11:09:00.292Z,30.18
2018-09-18T11:10:00.138Z,30.24
2018-09-18T11:10:59.895Z,30.31
2018-09-18T11:12:00.020Z,30.27
2018-09-18T11:12:59.598Z,30.3
2018-09-18T11:14:00.533Z,30.46
2018-09-18T11:15:00.064Z,30.43
2018-09-18T11:16:00.094Z,30.37
2018-09-18T11:17:00.330Z,30.31
2018-09-18T11:17:59.896Z,30.3
2018-09-18T11:18:59.561Z,30.31
2018-09-18T11:20:00.238Z,30.37
2018-09-18T11:20:59.914Z,30.52
2018-09-18T11:22:00.011Z,30.46
2018-09-18T11:22:59.851Z,30.61
2018-09-18T11:23:59.904Z,30.65
2018-09-18T11:24:59.972Z,30.69
2018-09-18T11:26:14.715Z,30.76
2018-09-18T11:27:00.071Z,30.72
2018-09-18T11:27:59.816Z,30.94
2018-09-18T11:29:00.129Z,31.09
2018-09-18T11:30:00.056Z,31.17
2018-09-18T11:30:59.768Z,31.48
2018-09-18T11:31:59.776Z,31.67
2018-09-18T11:33:00.093Z,31.95
2018-09-18T11:34:00.068Z,32.1
2018-09-18T11:35:00.076Z,32.21
2018-09-18T11:36:00.050Z,32.52
2018-09-18T11:37:00.035Z,32.74
2018-09-18T11:38:00.028Z,32.67
2018-09-18T11:38:59.768Z,32.81
2018-09-18T11:39:59.819Z,33.04
2018-09-18T11:40:59.503Z,33.36
2018-09-18T11:41:59.508Z,33.61
2018-09-18T11:42:59.775Z,33.94
2018-09-18T11:43:59.771Z,34.34
2018-09-18T11:45:00.043Z,34.46
2018-09-18T11:46:01.072Z,34.69
2018-09-18T11:47:00.182Z,34.86
2018-09-18T11:47:59.800Z,34.92
2018-09-18T11:48:59.794Z,35.2
2018-09-18T11:49:59.807Z,35.1
2018-09-18T11:50:59.811Z,35.18
2018-09-18T11:52:00.084Z,35.36
2018-09-18T11:53:00.323Z,35.29
2018-09-18T11:53:59.836Z,34.74
2018-09-18T11:55:00.084Z,34.57
2018-09-18T11:56:00.104Z,34.77
2018-09-18T11:56:59.937Z,34.79
2018-09-18T11:57:59.837Z,34.88
2018-09-18T11:59:00.117Z,34.57
2018-09-18T11:59:59.846Z,34.17
2018-09-18T12:01:00.113Z,34.24
2018-09-18T12:01:59.857Z,34.45
2018-09-18T12:03:00.222Z,34.54
2018-09-18T12:03:59.866Z,34.48
2018-09-18T12:05:00.185Z,34.66
2018-09-18T12:05:59.879Z,34.89
2018-09-18T12:06:59.879Z,34.99
2018-09-18T12:07:59.893Z,35.17
2018-09-18T12:09:00.223Z,35.14
2018-09-18T12:09:59.633Z,35.48
2018-09-18T12:11:00.166Z,35.81
2018-09-18T12:11:59.914Z,35.84
2018-09-18T12:12:59.912Z,35.77
2018-09-18T12:13:59.923Z,36.08
2018-09-18T12:15:00.191Z,36.41
2018-09-18T12:15:59.933Z,36.2
2018-09-18T12:17:00.363Z,36.26
2018-09-18T12:17:59.943Z,36.67
2018-09-18T12:18:59.953Z,36.19
2018-09-18T12:20:00.221Z,36.01
2018-09-18T12:21:00.236Z,35.69
2018-09-18T12:22:00.230Z,35.23
2018-09-18T12:22:59.977Z,35.47
2018-09-18T12:23:59.979Z,35.23
2018-09-18T12:24:59.980Z,34.89
2018-09-18T12:25:59.997Z,35.07
2018-09-18T12:27:00.266Z,35.42
2018-09-18T12:28:00.145Z,35.39
2018-09-18T12:29:00.273Z,35.3
2018-09-18T12:30:00.278Z,34.84
2018-09-18T12:31:00.281Z,34.83
2018-09-18T12:32:00.028Z,35.15
2018-09-18T12:33:00.032Z,35.35
2018-09-18T12:34:00.301Z,35.54
2018-09-18T12:34:59.780Z,35.69
2018-09-18T12:36:00.580Z,35.66
2018-09-18T12:37:00.053Z,35.51
2018-09-18T12:38:00.328Z,35.57
2018-09-18T12:39:00.069Z,35.67
2018-09-18T12:39:59.807Z,35.91
2018-09-18T12:41:00.093Z,36.04
2018-09-18T12:42:00.390Z,36.29
2018-09-18T12:43:00.353Z,36.57
2018-09-18T12:44:00.099Z,36.91
2018-09-18T12:45:00.365Z,37.12
2018-09-18T12:46:00.372Z,37.09
2018-09-18T12:47:00.122Z,37.05
2018-09-18T12:48:00.254Z,36.94
2018-09-18T12:49:00.785Z,36.46
2018-09-18T12:50:01.043Z,36.76
2018-09-18T12:51:00.308Z,36.77
2018-09-18T12:52:00.405Z,36.76
2018-09-18T12:53:00.153Z,36.67
2018-09-18T12:53:59.901Z,36.72
2018-09-18T12:55:00.158Z,36.23